createdAt,value
2022-08-16T00:04:04.438Z,17.04
2022-08-16T00:13:41.543Z,16.85
2022-08-16T00:23:17.931Z,16.8
2022-08-16T00:32:57.147Z,17.05
2022-08-16T00:42:32.304Z,16.88
2022-08-16T00:52:29.807Z,16.59
2022-08-16T01:01:45.901Z,16.26
2022-08-16T01:11:22.975Z,16.47
2022-08-16T01:20:59.909Z,16.14
2022-08-16T01:30:39.941Z,16.17
2022-08-16T01:40:16.446Z,16.52
2022-08-16T01:50:41.634Z,16.41
2022-08-16T01:59:29.847Z,16.37
2022-08-16T02:09:11.803Z,16.41
2022-08-16T02:18:44.125Z,16.3
2022-08-16T02:28:23.299Z,16.2
2022-08-16T02:38:01.436Z,15.8
2022-08-16T02:47:57.969Z,15.46
2022-08-16T02:57:12.349Z,15.82
2022-08-16T03:06:49.432Z,15.81
2022-08-16T03:16:33.300Z,15.78
2022-08-16T03:26:03.620Z,15.28
2022-08-16T03:35:40.029Z,15.06
2022-08-16T03:45:17.221Z,14.98
2022-08-16T03:54:57.891Z,14.46
2022-08-16T04:04:30.962Z,14.72
2022-08-16T04:14:08.849Z,14.82
2022-08-16T04:23:45.129Z,15.14
2022-08-16T04:33:26.926Z,15.16
2022-08-16T04:42:59.576Z,15.06
2022-08-16T04:52:37.148Z,15.09
2022-08-16T05:02:41.288Z,15.43
2022-08-16T05:11:52.892Z,15.89
2022-08-16T05:21:35.845Z,16.07
2022-08-16T05:31:08.423Z,16.51
2022-08-16T05:40:52.817Z,16.54
2022-08-16T05:50:28.170Z,16.73
2022-08-16T06:00:02.623Z,17.06
2022-08-16T06:09:43.207Z,17.56
2022-08-16T06:19:16.293Z,17.87
2022-08-16T06:28:55.059Z,18.24
2022-08-16T06:38:34.448Z,18.59
2022-08-16T06:48:10.778Z,18.95
2022-08-16T06:57:48.323Z,19.36
2022-08-16T07:07:26.050Z,19.82
2022-08-16T07:17:07.849Z,20.15
2022-08-16T07:26:42.113Z,20.65
2022-08-16T07:36:21.852Z,21.2
2022-08-16T07:45:58.462Z,21.49
2022-08-16T07:55:39.065Z,22.02
2022-08-16T08:05:15.234Z,22.38
2022-08-16T08:14:53.472Z,22.76
2022-08-16T08:24:32.610Z,23.42
2022-08-16T08:34:12.693Z,23.65
2022-08-16T08:43:50.307Z,24.44
2022-08-16T08:53:30.335Z,25.21
2022-08-16T09:03:09.058Z,25.84
2022-08-16T09:12:47.785Z,25.63
2022-08-16T09:22:25.028Z,25.36
2022-08-16T09:32:02.307Z,25.33
2022-08-16T09:41:40.425Z,25.67
2022-08-16T09:51:18.900Z,25.12
2022-08-16T10:00:58.400Z,25.7
2022-08-16T10:10:35.714Z,25.29
2022-08-16T10:20:18.430Z,26.01
2022-08-16T10:29:59.712Z,26.5
2022-08-16T10:39:33.000Z,26.74
2022-08-16T10:49:16.639Z,27.52
2022-08-16T11:08:35.390Z,28.6
2022-08-16T11:18:49.112Z,29.72
2022-08-16T11:27:48.138Z,28.8
2022-08-16T11:37:27.726Z,29.87
2022-08-16T11:47:10.497Z,29.08
2022-08-16T11:56:52.368Z,29.04
2022-08-16T12:06:24.742Z,28.85
2022-08-16T12:16:09.422Z,30.02
2022-08-16T12:25:39.166Z,30.08
2022-08-16T12:35:25.478Z,31.26
2022-08-16T12:45:03.572Z,31.19
2022-08-16T12:54:39.555Z,30.69
2022-08-16T13:04:21.140Z,31.53
2022-08-16T13:14:05.166Z,32.48
2022-08-16T13:23:43.460Z,32.1
2022-08-16T13:33:16.598Z,32.41
2022-08-16T13:42:47.626Z,31.83
2022-08-16T13:52:45.120Z,32.61
2022-08-16T14:02:09.923Z,31.15
2022-08-16T14:11:43.420Z,30.92
2022-08-16T14:21:19.053Z,30.51
2022-08-16T14:30:55.347Z,30
2022-08-16T14:40:32.709Z,30.58
2022-08-16T14:50:12.930Z,30.52
2022-08-16T14:59:51.916Z,31.61
2022-08-16T15:09:31.093Z,31.06
2022-08-16T15:19:05.006Z,30.15
2022-08-16T15:28:40.661Z,29.72
2022-08-16T15:38:31.813Z,29.34
2022-08-16T15:47:56.001Z,29.41
2022-08-16T15:57:36.790Z,30.59
2022-08-16T16:07:13.309Z,30.46
2022-08-16T16:16:48.674Z,29.79
2022-08-16T16:26:24.975Z,29.47
2022-08-16T16:36:01.164Z,29.14
2022-08-16T16:45:38.230Z,28.69
2022-08-16T16:55:15.238Z,28.56
2022-08-16T17:04:52.365Z,28.44
2022-08-16T17:14:32.549Z,28.26
2022-08-16T17:24:17.344Z,27.94
2022-08-16T17:33:54.212Z,27.78
2022-08-16T17:43:21.116Z,27.21
2022-08-16T17:52:57.485Z,26.4
2022-08-16T18:02:43.205Z,25.7
2022-08-16T18:21:45.926Z,24.63
2022-08-16T18:31:22.585Z,23.77
2022-08-16T18:40:58.617Z,22.94
2022-08-16T18:50:59.545Z,22.53
2022-08-16T19:00:12.091Z,22.25
2022-08-16T19:09:48.796Z,22.09
2022-08-16T19:19:25.303Z,21.66
2022-08-16T19:29:03.502Z,21.15
2022-08-16T19:38:38.956Z,20.73
2022-08-16T19:48:14.942Z,20.49
2022-08-16T19:57:51.893Z,20.06
2022-08-16T20:07:28.491Z,19.82
2022-08-16T20:17:05.353Z,19.58
2022-08-16T20:26:42.281Z,19.4
2022-08-16T20:36:19.430Z,19.2
2022-08-16T20:45:56.631Z,19.01
2022-08-16T20:55:33.697Z,18.75
2022-08-16T21:05:10.626Z,18.58
2022-08-16T21:14:47.624Z,18.19
2022-08-16T21:24:24.580Z,18.1
2022-08-16T21:34:01.633Z,17.82
2022-08-16T21:43:38.795Z,17.71
2022-08-16T21:53:15.707Z,17.51
2022-08-16T22:02:53.015Z,17.43
2022-08-16T22:12:29.664Z,17.35
2022-08-16T22:22:06.520Z,17.16
2022-08-16T22:31:43.867Z,16.94
2022-08-16T22:41:22.006Z,16.84
2022-08-16T22:50:58.089Z,16.78
2022-08-16T23:00:34.903Z,16.62
2022-08-16T23:10:11.967Z,16.49
2022-08-16T23:19:49.078Z,16.35
2022-08-16T23:29:26.419Z,16.19
2022-08-16T23:39:02.816Z,16.04
2022-08-16T23:49:45.523Z,15.91
2022-08-16T23:58:16.448Z,15.69
